Thursday, August 16, 2018, 9:58 AM EDT
Back to Local

KBML, Berlin Municipal Airport

Location: Milan, NH, United States Lat: 44.583
Local Time: 9:58 AM EDT (13:58 GMT) Lon: -71.183
Time Zone: US/Eastern Elev: 1158 ft

Show me the last for .
Show Decoded

2018-08-16 08:52 METAR KBML 161252Z AUTO 00000KT 10SM BKN070 22/19 A3001 RMK AO2 SLP156 T02170189
                 =
2018-08-16 07:52 METAR KBML 161152Z AUTO 00000KT 8SM FEW034 OVC055 20/19 A3000 RMK AO2 SLP156
                 70019 T02000189 10200 20167 53009 =
2018-08-16 06:52 METAR KBML 161052Z AUTO 00000KT 6SM BR FEW035 OVC055 18/18 A2999 RMK AO2 SLP150
                 T01830178 =
2018-08-16 06:11 METAR KBML 161011Z AUTO 00000KT 7SM FEW002 SCT022 OVC034 18/18 A2998 RMK AO2
                 T01780178 =
2018-08-16 05:52 METAR KBML 160952Z AUTO 00000KT 7SM FEW002 BKN024 OVC055 18/18 A2998 RMK AO2
                 SLP145 T01830178 =
2018-08-16 04:59 METAR KBML 160859Z AUTO 00000KT 8SM FEW001 BKN035 OVC045 18/17 A2996 RMK AO2
                 T01780172 =
2018-08-16 04:52 METAR KBML 160852Z AUTO 00000KT 7SM BKN037 BKN048 OVC090 17/17 A2996 RMK AO2
                 SLP141 T01720167 53008 =
2018-08-16 03:52 METAR KBML 160752Z AUTO 00000KT 7SM FEW080 17/17 A2994 RMK AO2 SLP135 T01720172
                 =
2018-08-16 02:52 METAR KBML 160652Z AUTO 00000KT 5SM BR OVC090 18/18 A2995 RMK AO2 SLP135
                 T01830183 =
2018-08-16 01:52 METAR KBML 160552Z AUTO 00000KT 7SM CLR 18/18 A2994 RMK AO2 RAB14E30 SLP133
                 P0001 60019 T01830178 10217 20183 58001 =
2018-08-16 01:05 METAR KBML 160505Z AUTO 00000KT 10SM FEW025 BKN050 OVC110 20/19 A2995 RMK AO2
                 T02000189 =
2018-08-16 00:52 METAR KBML 160452Z AUTO 00000KT 9SM SCT023 BKN028 BKN043 20/19 A2995 RMK AO2
                 TSB0354E09 SLP136 T02000194 402830161 =
2018-08-16 00:24 METAR KBML 160424Z AUTO 01004KT 8SM BKN025 OVC038 21/20 A2995 RMK AO2 LTG DSNT E
                 TSB0354E09 T02060200 =
2018-08-16 00:09 METAR KBML 160409Z AUTO 00000KT 7SM VCTS FEW019 BKN027 OVC065 21/20 A2995 RMK
                 AO2 LTG DSNT NW TSB0354E09 T02060200 =
2018-08-16 00:00 METAR KBML 160400Z AUTO 00000KT 7SM TS SCT029 BKN039 OVC065 21/20 A2995 RMK AO2
                 LTG DSNT NW TSB0354 T02060200 =
2018-08-15 23:52 METAR KBML 160352Z AUTO 00000KT 6SM VCTS BR FEW031 BKN060 OVC100 21/20 A2995 RMK
                 AO2 LTG DSNT NW TSB0258E13 SLP135 T02060200 =
2018-08-15 23:47 METAR KBML 160347Z AUTO 19004KT 8SM VCTS FEW031 BKN065 BKN110 21/20 A2994 RMK
                 AO2 LTG DSNT NW TSB0258E13 =
2018-08-15 23:19 METAR KBML 160319Z AUTO 00000KT 8SM FEW034 BKN080 BKN100 21/20 A2993 RMK AO2 LTG
                 DSNT E AND NW TSB0258E13 T02060200 =
2018-08-15 22:58 METAR KBML 160258Z AUTO 00000KT 9SM TS FEW042 SCT070 BKN090 21/20 A2993 RMK AO2
                 LTG DSNT NE TSB58 T02110200 =
2018-08-15 22:52 METAR KBML 160252Z AUTO 00000KT 9SM FEW042 BKN090 OVC120 21/20 A2993 RMK AO2 LTG
                 DSNT NE AND SW RAB01E52 SLP129 P0018 60018 T02110200 50012 =
2018-08-15 22:49 METAR KBML 160249Z AUTO 00000KT 4SM -RA BR FEW040 BKN070 OVC110 21/20 A2993 RMK
                 AO2 LTG DSNT NE AND SW RAB01 P0018 =
2018-08-15 22:41 METAR KBML 160241Z AUTO 00000KT 1 3/4SM +RA BR SCT041 BKN070 OVC110 21/21 A2993
                 RMK AO2 LTG DSNT N AND NE AND SW RAB01 P0018 T02110206 =
2018-08-15 22:26 METAR KBML 160226Z AUTO 00000KT 3SM -RA BR FEW044 BKN075 OVC100 21/20 A2993 RMK
                 AO2 LTG DSNT N AND NE RAB01 P0009 T02110200 =
2018-08-15 22:18 METAR KBML 160218Z AUTO 15003KT 1 3/4SM +RA BR SCT044 BKN080 OVC100 21/20 A2993
                 RMK AO2 LTG DSNT W-NE RAB01 P0009 T02060200 =
2018-08-15 22:03 METAR KBML 160203Z AUTO 35004KT 7SM -RA FEW049 BKN075 OVC100 21/20 A2993 RMK AO2
                 LTG DSNT N AND NE RAB01 P0001 T02110200 =
2018-08-15 21:52 METAR KBML 160152Z AUTO 00000KT 10SM VCTS SCT050 BKN070 BKN090 21/19 A2993 RMK
                 AO2 SLP131 T02060194 =
2018-08-15 21:45 METAR KBML 160145Z AUTO 00000KT 9SM VCTS FEW047 BKN065 21/19 A2993 RMK AO2
                 T02060194 =
2018-08-15 20:52 METAR KBML 160052Z AUTO 00000KT 10SM BKN065 21/19 A2991 RMK AO2 LTG DSNT SW
                 SLP125 T02110194 =
2018-08-15 19:52 METAR KBML 152352Z AUTO 00000KT 9SM CLR 22/20 A2989 RMK AO2 SLP118 T02170200
                 10283 20217 53013 =
2018-08-15 18:52 METAR KBML 152252Z AUTO 00000KT 10SM FEW050 27/19 A2987 RMK AO2 SLP110 T02670189
                 =
2018-08-15 17:52 METAR KBML 152152Z AUTO 00000KT 10SM CLR 27/18 A2986 RMK AO2 SLP107 T02720183 =
2018-08-15 16:52 METAR KBML 152052Z AUTO VRB05KT 10SM CLR 28/18 A2985 RMK AO2 SLP103 T02780178
                 56002 =
2018-08-15 15:52 METAR KBML 151952Z AUTO VRB06KT 10SM CLR 28/18 A2985 RMK AO2 SLP104 T02780183 =
2018-08-15 14:52 METAR KBML 151852Z AUTO VRB04KT 10SM CLR 28/20 A2985 RMK AO2 SLP103 T02830200 =
2018-08-15 13:52 METAR KBML 151752Z AUTO VRB05KT 10SM CLR 27/21 A2986 RMK AO2 SLP105 T02720206
                 10278 20178 57005 =
2018-08-15 12:52 METAR KBML 151652Z AUTO VRB03KT 10SM FEW100 27/21 A2987 RMK AO2 SLP107 T02720206
                 =
2018-08-15 12:45 METAR KBML 151645Z AUTO VRB03KT 10SM FEW100 27/20 A2987 RMK AO2 T02720200 =
2018-08-15 12:30 METAR KBML 151630Z AUTO VRB06KT 10SM VCTS FEW050 SCT080 SCT100 27/19 A2987 RMK
                 AO2 LTG DSNT NE T02670189 =
2018-08-15 11:52 METAR KBML 151552Z AUTO VRB05KT 10SM BKN032 BKN048 25/19 A2987 RMK AO2 SLP110
                 T02500194 =
2018-08-15 10:52 METAR KBML 151452Z AUTO 00000KT 10SM SCT025 26/19 A2988 RMK AO2 SLP111 T02610189
                 52003 =

Support USWX by starting your Amazon purchase here.